India

Resources for India vACC

Active Sector File
VABB_SMR-master.zip | Release Date 8/31/2017 | Downloads 187 | File Size 7.59 MB
VABF-master.zip | Realease Date 7/14/2017 | Downloads 134 | File Size 6.55 MB
VECF-master.zip | Release Date 5/24/2017 | Downloads 135 | File Size 6.87 MB
VIDF-master.zip | Release Date 8/24/2017 | Downloads 143 | File Size 6.54 MB
VOMF-master.zip | Release Date 7/21/2017 | Downloads 125 | File Size 6.62 MB 

VATSIM Metar for India
Mumbai
VAID 130600Z 27005KT 6000 FEW020 SCT025 30/23 Q1006 NOSIG
VAUD 130700Z 00000KT 5000 HZ SCT030 SCT035 30/24 Q1004 NOSIG
VAPR 130600Z 25008KT 6000 FEW020 SCT025 SCT080 31/29 Q1002
VAOZ 130730Z 27007KT 6000 FEW020 SCT030 FEW040TCU 30/23 Q1007 TEMPO RA
VABB 130730Z 21003KT 3000 -RA SCT018 SCT025 FEW030CB BKN080 27/27 Q1004 NOSIG
VASD 130700Z VRB01KT 5000 HZ SCT025 OVC080 27/19 Q1007 NOSIG
VAAU 130700Z 25004KT 6000 SCT020 SCT025 30/22 Q1007 NOSIG
VASU 130730Z 17010KT 5000 HZ FEW012 SCT020 SCT080 31/27 Q1002 NOSIG
VAJJ 130700Z 23006KT 2500 RA FEW012 SCT018 FEW030CB OVC080 27/27 Q1004 NOSIG
VABO 130730Z 19004KT 5000 HZ SCT020 SCT025 33/26 Q1001 NOSIG
VABP 130730Z 24009KT 6000 FEW020 BKN025 29/25 Q1005 NOSIG
VAKP 130630Z 27008KT 8000 SCT012 BKN100 27/22 Q1009
VAAH 130730Z 23005KT 5000 FU SCT020 BKN080 33/27 Q1002 NOSIG
VANP 130730Z 32006KT 5000 HZ FEW018 SCT025 33/25 Q1003 NOSIG
VAJB 130300Z 24006KT 3000 BR SCT010 SCT015 FEW035CB BKN080

Kolkata
VEPT 130730Z 14008KT 3500 BR SCT015 BKN090 28/26 Q0999 NOSIG
VERC 130730Z 01004KT 3500 HZ SCT018 FEW030CB BKN100 29/25 Q1003 NOSIG
VECC 130730Z 15006KT 3500 HZ SCT018 BKN100 32/30 Q0999 NOSIG
VEBN 130700Z 27006KT 5000 HZ FEW025 SCT100 33/25 Q0999 NOSIG
VEAT 130730Z 22003KT 5000 BR SCT018 BKN100 32/28 Q1001 NOSIG
VEMN 130730Z 03007KT 5000 HZ SCT016 BKN100 32/27 Q1001 NOSIG
VEGY 130700Z 32006KT 5000 HZ SCT018 SCT025 FEW030CB BKN100 34/27 Q1000 TEMPO 3000 -TSRA
VEMR 130700Z 05003KT 5000 HZ FEW010 SCT020 FEW025CB BKN100 32/25 Q1001= CB TO SW/OH
VELR 130700Z 04004KT 3500 BR SCT010 SCT018 FEW025CB BKN090 31/27 Q1001
VEJS 130700Z 24006KT 3000 HZ SCT015 SCT025 BKN100 33/26 Q1001
VEKO 130600Z 27003KT 6000 SCT020 SCT025 34/27 Q1001
VEJH 130730Z 23008KT 5000 HZ SCT020 SCT100 32/26 Q1002
VEBS 130730Z 21006KT 5000 HZ BKN018 BKN100 30/28 Q1001 NOSIG
VEBI 130630Z 06003KT 4500 BR FEW008 SCT018 FEW025CB OVC080 27/23 Q1006
VEIM 130200Z 00000KT 3000 BR FEW008 SCT018 BKN100 25/23 Q1007 NOSIG
VEPY 130730Z 20002KT 3500 HZ FEW008 SCT015 SCT020 BKN100 22/20 Q1009 NOSIG
VELP 130730Z 00000KT 4000 HZ SCT018 BKN100 31/23 Q1003 NOSIG
VERP 130700Z 25005KT 4000 HZ SCT025 BKN090 31/26 Q1003 NOSIG
VEGK 130630Z 10005KT 6000 SCT008 BKN012 BKN120 30/30 Q1000 TEMPO 4000 -RA
VEGT 130730Z 28006KT 4500 BR SCT018 FEW025CB BKN090 31/30 Q1001 NOSIG
VEBD 130630Z 07006KT 6000 SCT015 SCT025 BKN080 29/25 Q1001 TEMPO 3000 RAIN

Delhi
VIDP 130730Z 24006KT 5000 HZ FEW035 SCT100 35/23 Q0999 NOSIG
VIGR 130630Z 27010KT 6000 FEW025 SCT030 34/26 Q1001 NOSIG
VIDD 130730Z 27006KT 4500 HZ FEW035 SCT100 36/24 Q1000 NOSIG
VILK 130700Z 23004KT 5000 HZ SCT018 SCT025 BKN200 34/25 Q0999 NOSIG
VIAR 130730Z 28005KT 6000 HZ FEW040 33/25 Q1000 NOSIG
VIKO 130200Z 25004KT 6000 OVC030 28/25 Q1002 NOSIG
VICG 130630Z 27005KT 6000 FEW030 33/28 Q1001 NOSIG
VIBR 130700Z 14006KT 6000 FEW020TCU 32/20 Q1003
VIPT 130700Z 14004KT 5000 HZ FEW020 33/27 Q1000
VISM 130700Z 29006KT 6000 FEW030 26/20 Q1010
VILD 130700Z 00000KT 5000 HZ SCT030 32/26 Q1000
VIGG 130700Z 21003KT 6000 SCT030 31/24 Q1005
VISR 130630Z 26006KT 6000 FEW025 FEW030TCU BKN090 28/16 Q1012 TEMPO TS
VIJP 130730Z 27009KT 5000 HZ SCT030 FEW035CB BKN100 33/26 Q1001 TEMPO 1500 TSRA
VIDN 130730Z 24004KT 6000 SCT030 33/23 Q1001
VIAG 130630Z 30007KT 6000 SCT025 SCT250 36/24 Q1000 NOSIG
VIJU 130630Z 33003KT 6000 FEW020 SCT025 33/25 Q1001 NOSIG
VILH 130630Z 25005KT 6000 FEW070 24/-9 Q1019 NOSIG

Chennai
VOML 130730Z 29008KT 8000 FEW012 SCT020 BKN080 30/24 Q1006 NOSIG
VOHY 130700Z 30004KT 5000 HZ FEW020 BKN100 27/23 Q1008 NOSIG
VOTP 130700Z 22005KT 7000 SCT020 FEW025CB 32/24 Q1004
VOBG 130730Z 27007KT 8000 SCT012 SCT018 28/20 Q1010 NOSIG
VOSM 130700Z 26006KT 8000 FEW020 BKN080 32/21 Q1006 NOSIG
VOKN 130730Z 29007KT 6000 SCT012 FEW025CB BKN080 29/25 Q1006 NOSIG
VOTV 130730Z 30008KT 6000 FEW015 SCT080 30/25 Q1007 NOSIG
VOTK 130700Z 28010KT 7000 SCT020 35/21 Q1005 NOSIG
VOMY 130700Z 24012KT 8000 SCT015 SCT080 28/21 Q1010
VOHB 130700Z 27008KT 9999 FEW010 SCT015 SCT080 26/21 Q1011
VOVZ 130700Z 26006KT 6000 FEW018 SCT220 34/24 Q1001 NOSIG
VOCI 130700Z 29011KT 5000 BR FEW015 BKN080 30/24 Q1007 NOSIG
VOBM 130700Z 27006KT 6000 SCT007 SCT012 BKN080 25/22 Q1011
VOBZ 130700Z 20005KT 6000 SCT020 BKN100 32/28 Q1002 NOSIG
VOCP 130700Z 30007KT 6000 FEW020 BKN100 32/23 Q1004
VOGO 130530Z 28007KT 4000 -RA FEW006 SCT010 OVC080 25/25 Q1007 TEMPO 1500 RA/SHRA
VOTR 130700Z 30010KT 6000 SCT016 SCT100 34/23 Q1005 NOSIG
VOPB 130400Z 25011G17KT 3000 RA FEW008 SCT010 FEW018TCU OVC080 26/24 Q1008 TEMPO 1500 RA
VOMD 130730Z 34003KT 9000 FEW020 SCT090 34/23 Q1006 NOSIG
VOHS 130730Z 27005KT 6000 SCT015 SCT025 FEW030CB BKN100 29/26 Q1008 TEMPO 5000 -TSRA
VOMM 130730Z 26008KT 8000 FEW020 SCT025 32/26 Q1004 NOSIG
VOBL 130700Z 30007KT 270V340 9999 SCT015 SCT020 27/20 Q1011 NOSIG
VOCL 130730Z 33004KT 6000 SCT012 SCT018 BKN080 28/24 Q1006 NOSIG
VOCB 130730Z 20006KT 6000 SCT015 SCT080 29/22 Q1008 NOSIG
VOAT 130700Z 33005KT 6000 SCT015 OVC080 29/25 Q1007 NOSIG
VORY 130730Z 22008KT 6000 SCT020 BKN090 29/25 Q1002 NOSIG